createdAt,value
2018-04-13T00:00:56.070Z,98920.73
2018-04-13T00:03:23.463Z,98926.24
2018-04-13T00:05:50.851Z,98924.63
2018-04-13T00:08:18.230Z,98922.78
2018-04-13T00:10:45.675Z,98929.66
2018-04-13T00:13:13.067Z,98932.42
2018-04-13T00:15:40.463Z,98931.05
2018-04-13T00:18:07.850Z,98940.08
2018-04-13T00:20:35.235Z,98943.13
2018-04-13T00:23:02.626Z,98934.33
2018-04-13T00:25:30.020Z,98938.39
2018-04-13T00:27:57.398Z,98930.75
2018-04-13T00:30:24.788Z,98930.73
2018-04-13T00:32:52.190Z,98927.20
2018-04-13T00:35:19.579Z,98930.47
2018-04-13T00:37:47.091Z,98936.63
2018-04-13T00:40:14.479Z,98943.13
2018-04-13T00:42:41.863Z,98942.95
2018-04-13T00:45:09.252Z,98939.03
2018-04-13T00:47:36.633Z,98939.44
2018-04-13T00:50:04.187Z,98943.25
2018-04-13T00:52:31.559Z,98944.50
2018-04-13T00:54:58.943Z,98941.09
2018-04-13T00:57:26.338Z,98944.85
2018-04-13T00:59:53.720Z,98940.98
2018-04-13T01:02:21.111Z,98947.66
2018-04-13T01:04:48.491Z,98950.19
2018-04-13T01:07:15.993Z,98950.17
2018-04-13T01:09:43.364Z,98961.71
2018-04-13T01:12:10.804Z,98963.51
2018-04-13T01:14:38.275Z,98959.05
2018-04-13T01:17:05.659Z,98963.42
2018-04-13T01:19:33.055Z,98964.66
2018-04-13T01:22:00.443Z,98955.70
2018-04-13T01:24:27.830Z,98957.79
2018-04-13T01:26:55.218Z,98957.39
2018-04-13T01:29:22.606Z,98955.13
2018-04-13T01:31:49.992Z,98962.30
2018-04-13T01:34:17.379Z,98955.17
2018-04-13T01:36:44.771Z,98949.65
2018-04-13T01:39:12.157Z,98959.41
2018-04-13T01:41:39.550Z,98953.24
2018-04-13T01:44:06.922Z,98955.35
2018-04-13T01:46:34.319Z,98952.87
2018-04-13T01:49:01.695Z,98951.19
2018-04-13T01:51:29.096Z,98959.50
2018-04-13T01:53:56.481Z,98957.59
2018-04-13T01:56:23.855Z,98971.31
2018-04-13T01:58:51.250Z,98968.84
2018-04-13T02:01:18.631Z,98970.36
2018-04-13T02:03:46.015Z,98964.64
2018-04-13T02:06:13.391Z,98968.84
2018-04-13T02:08:40.782Z,98966.71
2018-04-13T02:11:08.164Z,98978.28
2018-04-13T02:13:35.554Z,98980.34
2018-04-13T02:16:02.938Z,98970.60
2018-04-13T02:18:30.318Z,98974.63
2018-04-13T02:20:57.707Z,98969.38
2018-04-13T02:23:25.094Z,98976.38
2018-04-13T02:25:52.579Z,98972.30
2018-04-13T02:28:19.944Z,98976.02
2018-04-13T02:30:47.339Z,98977.91
2018-04-13T02:33:14.723Z,98974.56
2018-04-13T02:35:42.119Z,98968.47
2018-04-13T02:38:09.515Z,98970.94
2018-04-13T02:40:36.902Z,98975.81
2018-04-13T02:43:04.287Z,98973.25
2018-04-13T02:45:31.674Z,98969.80
2018-04-13T02:47:59.064Z,98973.45
2018-04-13T02:50:26.462Z,98970.61
2018-04-13T02:52:54.166Z,98975.23
2018-04-13T02:55:21.561Z,98974.69
2018-04-13T02:57:48.951Z,98980.08
2018-04-13T03:00:16.349Z,98974.20
2018-04-13T03:02:43.723Z,98976.09
2018-04-13T03:05:11.115Z,98967.48
2018-04-13T03:07:38.514Z,98963.64
2018-04-13T03:10:05.890Z,98965.58
2018-04-13T03:12:33.267Z,98962.57
2018-04-13T03:15:00.647Z,98965.94
2018-04-13T03:17:28.043Z,98966.65
2018-04-13T03:19:55.418Z,98974.89
2018-04-13T03:22:22.811Z,98972.71
2018-04-13T03:24:50.191Z,98975.92
2018-04-13T03:27:17.583Z,98977.47
2018-04-13T03:29:44.961Z,98980.55
2018-04-13T03:32:12.368Z,98982.36
2018-04-13T03:34:39.748Z,98981.09
2018-04-13T03:37:07.135Z,98992.17
2018-04-13T03:39:34.519Z,98989.86
2018-04-13T03:42:01.902Z,98994.73
2018-04-13T03:44:29.286Z,98994.52
2018-04-13T03:46:56.666Z,98990.99
2018-04-13T03:49:24.047Z,98989.25
2018-04-13T03:51:51.867Z,99001.39
2018-04-13T03:54:19.262Z,98993.84
2018-04-13T03:56:46.637Z,99002.03
2018-04-13T03:59:14.029Z,99003.09
2018-04-13T04:01:41.412Z,99012.45
2018-04-13T04:04:08.788Z,99006.33
2018-04-13T04:06:36.182Z,99011.86
2018-04-13T04:09:03.562Z,99010.94
2018-04-13T04:11:30.951Z,99006.88
2018-04-13T04:13:58.327Z,99012.48
2018-04-13T04:16:25.755Z,99014.73
2018-04-13T04:18:53.096Z,99013.66
2018-04-13T04:21:32.149Z,99016.04
2018-04-13T04:24:11.366Z,99020.66
2018-04-13T04:26:50.659Z,99028.77
2018-04-13T04:29:18.035Z,99029.81
2018-04-13T04:31:45.435Z,99037.86
2018-04-13T04:34:12.820Z,99046.06
2018-04-13T04:36:40.190Z,99052.71
2018-04-13T04:39:07.595Z,99061.45
2018-04-13T04:41:34.970Z,99060.51
2018-04-13T04:44:02.367Z,99065.55
2018-04-13T04:46:29.743Z,99067.23
2018-04-13T04:48:57.128Z,99068.52
2018-04-13T04:51:24.506Z,99080.93
2018-04-13T04:53:51.915Z,99076.15
2018-04-13T04:56:19.291Z,99077.59
2018-04-13T04:58:46.675Z,99078.67
2018-04-13T05:01:14.063Z,99078.17
2018-04-13T05:03:41.446Z,99082.83
2018-04-13T05:06:08.826Z,99089.91
2018-04-13T05:08:36.215Z,99091.28
2018-04-13T05:11:03.609Z,99102.50
2018-04-13T05:13:30.987Z,99099.91
2018-04-13T05:15:58.379Z,99099.41
2018-04-13T05:18:25.764Z,99105.61
2018-04-13T05:20:53.151Z,99116.89
2018-04-13T05:23:20.542Z,99119.41
2018-04-13T05:25:47.947Z,99120.11
2018-04-13T05:28:15.335Z,99129.44
2018-04-13T05:30:42.727Z,99131.22
2018-04-13T05:33:10.122Z,99131.28
2018-04-13T05:35:37.511Z,99140.30
2018-04-13T05:38:04.893Z,99142.52
2018-04-13T05:40:32.282Z,99142.02
2018-04-13T05:42:59.659Z,99146.81
2018-04-13T05:45:27.052Z,99156.55
2018-04-13T05:47:54.443Z,99151.61
2018-04-13T05:50:21.830Z,99161.44
2018-04-13T05:52:49.222Z,99164.48
2018-04-13T05:55:16.820Z,99165.75
2018-04-13T05:57:44.203Z,99162.80
2018-04-13T06:00:11.643Z,99155.48
2018-04-13T06:02:38.979Z,99159.75
2018-04-13T06:05:06.367Z,99160.98
2018-04-13T06:07:33.751Z,99162.43
2018-04-13T06:10:01.139Z,99157.53
2018-04-13T06:12:28.534Z,99162.72
2018-04-13T06:14:55.911Z,99159.66
2018-04-13T06:17:23.306Z,99160.69
2018-04-13T06:19:50.691Z,99151.80
2018-04-13T06:22:18.079Z,99164.34
2018-04-13T06:24:45.459Z,99166.38
2018-04-13T06:27:12.841Z,99166.52
2018-04-13T06:29:40.235Z,99160.01
2018-04-13T06:32:07.630Z,99170.74
2018-04-13T06:34:35.023Z,99169.75
2018-04-13T06:37:02.408Z,99174.80
2018-04-13T06:39:29.804Z,99171.50
2018-04-13T06:41:57.182Z,99178.49
2018-04-13T06:44:24.571Z,99174.73
2018-04-13T06:46:51.970Z,99180.02
2018-04-13T06:49:19.355Z,99185.23
2018-04-13T06:51:46.739Z,99188.70
2018-04-13T06:54:14.272Z,99194.69
2018-04-13T06:56:41.694Z,99193.45
2018-04-13T06:59:09.058Z,99195.67
2018-04-13T07:01:36.452Z,99199.70
2018-04-13T07:04:03.838Z,99201.11
2018-04-13T07:06:31.219Z,99208.79
2018-04-13T07:08:58.604Z,99217.95
2018-04-13T07:11:25.993Z,99217.81
2018-04-13T07:13:53.387Z,99212.05
2018-04-13T07:16:20.767Z,99206.43
2018-04-13T07:18:48.188Z,99207.77
2018-04-13T07:21:15.564Z,99202.31
2018-04-13T07:23:42.946Z,99206.14
2018-04-13T07:26:10.338Z,99203.48
2018-04-13T07:28:37.731Z,99204.53
2018-04-13T07:31:05.126Z,99208.99
2018-04-13T07:33:32.512Z,99205.95
2018-04-13T07:36:00.223Z,99208.43
2018-04-13T07:38:27.608Z,99213.30
2018-04-13T07:40:54.986Z,99214.89
2018-04-13T07:43:22.370Z,99222.63
2018-04-13T07:45:50.005Z,99218.31
2018-04-13T07:48:17.794Z,99224.75
2018-04-13T07:50:44.528Z,99228.21
2018-04-13T07:53:11.922Z,99230.31
2018-04-13T07:55:39.304Z,99233.61
2018-04-13T07:58:06.734Z,99235.53
2018-04-13T08:00:34.680Z,99236.66
2018-04-13T08:03:01.479Z,99238.81
2018-04-13T08:05:28.867Z,99238.09
2018-04-13T08:07:56.302Z,99235.38
2018-04-13T08:10:23.687Z,99242.55
2018-04-13T08:12:51.071Z,99239.94
2018-04-13T08:15:18.464Z,99243.88
2018-04-13T08:17:45.852Z,99242.13
2018-04-13T08:20:13.235Z,99244.43
2018-04-13T08:22:40.619Z,99245.16
2018-04-13T08:25:07.998Z,99246.23
2018-04-13T08:27:35.387Z,99249.21
2018-04-13T08:30:02.855Z,99242.45
2018-04-13T08:32:30.248Z,99239.05
2018-04-13T08:34:57.632Z,99238.60
2018-04-13T08:37:25.019Z,99243.45
2018-04-13T08:39:52.405Z,99253.02
2018-04-13T08:42:19.778Z,99264.88
2018-04-13T08:44:47.167Z,99272.16
2018-04-13T08:47:14.575Z,99273.48
2018-04-13T08:49:41.927Z,99278.81
2018-04-13T08:52:09.334Z,99286.25
2018-04-13T08:54:36.691Z,99279.47
2018-04-13T08:57:04.085Z,99289.61
2018-04-13T08:59:31.470Z,99290.50
2018-04-13T09:01:58.856Z,99301.11
2018-04-13T09:04:26.234Z,99313.79
2018-04-13T09:06:53.623Z,99312.84
2018-04-13T09:09:21.023Z,99304.66
2018-04-13T09:11:48.424Z,99311.42
2018-04-13T09:14:15.809Z,99309.64
2018-04-13T09:16:43.187Z,99307.74
2018-04-13T09:19:10.579Z,99314.12
2018-04-13T09:21:37.963Z,99322.19
2018-04-13T09:24:05.351Z,99318.97
2018-04-13T09:26:32.731Z,99316.86
2018-04-13T09:29:00.129Z,99324.51
2018-04-13T09:31:27.511Z,99322.51
2018-04-13T09:33:54.904Z,99316.72
2018-04-13T09:36:22.292Z,99313.20
2018-04-13T09:38:49.679Z,99312.34
2018-04-13T09:41:17.071Z,99312.65
2018-04-13T09:43:44.480Z,99313.85
2018-04-13T09:46:11.914Z,99313.88
2018-04-13T09:48:39.254Z,99312.14
2018-04-13T09:51:06.651Z,99314.63
2018-04-13T09:53:34.039Z,99322.27
2018-04-13T09:56:01.424Z,99327.89
2018-04-13T09:58:28.810Z,99325.73
2018-04-13T10:00:59.979Z,99328.80
2018-04-13T10:03:27.367Z,99330.53
2018-04-13T10:05:54.767Z,99340.84
2018-04-13T10:08:22.147Z,99338.50
2018-04-13T10:10:49.554Z,99332.22
2018-04-13T10:13:16.959Z,99338.17
2018-04-13T10:15:44.365Z,99336.66
2018-04-13T10:18:11.726Z,99340.80
2018-04-13T10:20:39.116Z,99349.00
2018-04-13T10:23:06.495Z,99352.64
2018-04-13T10:25:33.886Z,99352.29
2018-04-13T10:28:01.271Z,99355.25
2018-04-13T10:30:29.079Z,99351.23
2018-04-13T10:32:56.505Z,99351.76
2018-04-13T10:35:23.891Z,99361.72
2018-04-13T10:37:51.281Z,99358.65
2018-04-13T10:40:18.663Z,99360.82
2018-04-13T10:42:46.046Z,99368.45
2018-04-13T10:45:13.449Z,99373.97
2018-04-13T10:47:40.839Z,99382.43
2018-04-13T10:50:08.222Z,99381.35
2018-04-13T10:52:35.622Z,99376.63
2018-04-13T10:55:03.013Z,99384.04
2018-04-13T10:57:30.399Z,99387.27
2018-04-13T10:59:57.782Z,99392.75
2018-04-13T11:02:25.175Z,99394.13
2018-04-13T11:04:52.563Z,99395.69
2018-04-13T11:07:19.955Z,99407.55
2018-04-13T11:09:47.347Z,99408.20
2018-04-13T11:12:16.467Z,99413.72
2018-04-13T11:14:43.842Z,99413.97
2018-04-13T11:17:11.290Z,99419.74
2018-04-13T11:19:38.675Z,99426.62
2018-04-13T11:22:06.059Z,99425.53
2018-04-13T11:24:33.442Z,99431.03
2018-04-13T11:27:00.827Z,99435.91
2018-04-13T11:29:28.207Z,99431.88
2018-04-13T11:31:55.595Z,99430.98
2018-04-13T11:34:23.070Z,99430.17
2018-04-13T11:36:50.496Z,99426.17
2018-04-13T11:39:17.915Z,99427.41
2018-04-13T11:41:45.294Z,99421.27
2018-04-13T11:44:12.687Z,99430.31
2018-04-13T11:46:40.071Z,99432.06
2018-04-13T11:49:07.460Z,99435.42
2018-04-13T11:51:34.843Z,99435.41
2018-04-13T11:54:02.250Z,99434.09
2018-04-13T11:56:29.630Z,99444.29
2018-04-13T11:58:57.022Z,99438.25
2018-04-13T12:01:24.415Z,99441.78
2018-04-13T12:03:51.796Z,99445.24
2018-04-13T12:06:19.183Z,99445.17
2018-04-13T12:08:46.567Z,99455.98
2018-04-13T12:11:13.947Z,99469.70
2018-04-13T12:13:41.334Z,99467.37
2018-04-13T12:16:08.727Z,99473.10
2018-04-13T12:18:36.110Z,99469.03
2018-04-13T12:21:03.534Z,99481.23
2018-04-13T12:23:30.915Z,99478.97
2018-04-13T12:25:58.295Z,99486.26
2018-04-13T12:28:25.691Z,99480.61
2018-04-13T12:30:53.115Z,99483.04
2018-04-13T12:33:20.511Z,99476.34
2018-04-13T12:35:47.895Z,99487.80
2018-04-13T12:38:15.305Z,99487.80
2018-04-13T12:40:42.666Z,99489.56
2018-04-13T12:43:10.064Z,99493.87
2018-04-13T12:45:37.455Z,99493.59
2018-04-13T12:48:04.826Z,99501.55
2018-04-13T12:50:32.228Z,99499.38
2018-04-13T12:52:59.628Z,99495.74
2018-04-13T12:55:27.003Z,99497.08
2018-04-13T12:57:54.382Z,99499.70
2018-04-13T13:00:22.027Z,99502.47
2018-04-13T13:02:49.420Z,99499.92
2018-04-13T13:05:16.795Z,99508.39
2018-04-13T13:07:44.187Z,99507.98
2018-04-13T13:10:11.570Z,99504.49
2018-04-13T13:12:38.968Z,99501.31
2018-04-13T13:15:06.435Z,99502.44
2018-04-13T13:17:33.912Z,99509.16
2018-04-13T13:20:01.299Z,99509.30
2018-04-13T13:22:28.691Z,99501.19
2018-04-13T13:24:56.127Z,99508.08
2018-04-13T13:27:23.510Z,99509.15
2018-04-13T13:29:50.900Z,99513.64
2018-04-13T13:32:18.279Z,99515.54
2018-04-13T13:34:45.670Z,99512.69
2018-04-13T13:37:13.054Z,99516.73
2018-04-13T13:39:40.439Z,99519.84
2018-04-13T13:42:07.824Z,99522.41
2018-04-13T13:44:35.207Z,99533.33
2018-04-13T13:47:02.601Z,99529.95
2018-04-13T13:49:30.027Z,99529.69
2018-04-13T13:51:57.817Z,99534.53
2018-04-13T13:54:25.200Z,99546.80
2018-04-13T13:56:52.608Z,99550.03
2018-04-13T13:59:20.001Z,99551.63
2018-04-13T14:01:47.376Z,99551.04
2018-04-13T14:04:14.899Z,99551.73
2018-04-13T14:06:42.293Z,99554.69
2018-04-13T14:09:09.678Z,99557.16
2018-04-13T14:11:37.071Z,99549.22
2018-04-13T14:14:04.462Z,99549.36
2018-04-13T14:16:31.983Z,99559.58
2018-04-13T14:18:59.369Z,99552.17
2018-04-13T14:21:26.754Z,99560.41
2018-04-13T14:23:54.148Z,99562.14
2018-04-13T14:26:21.551Z,99569.68
2018-04-13T14:28:48.936Z,99573.03
2018-04-13T14:31:16.315Z,99580.31
2018-04-13T14:33:43.702Z,99582.75
2018-04-13T14:36:11.092Z,99589.06
2018-04-13T14:38:38.491Z,99594.98
2018-04-13T14:41:05.871Z,99593.11
2018-04-13T14:43:33.264Z,99599.05
2018-04-13T14:46:00.647Z,99602.88
2018-04-13T14:48:28.035Z,99608.47
2018-04-13T14:50:55.592Z,99609.58
2018-04-13T14:53:22.915Z,99613.19
2018-04-13T14:55:50.313Z,99622.58
2018-04-13T14:58:17.691Z,99615.55
2018-04-13T15:00:45.090Z,99623.05
2018-04-13T15:03:12.471Z,99626.84
2018-04-13T15:05:39.852Z,99629.38
2018-04-13T15:08:07.235Z,99632.08
2018-04-13T15:10:34.620Z,99624.22
2018-04-13T15:13:02.011Z,99631.37
2018-04-13T15:15:29.388Z,99632.85
2018-04-13T15:17:56.786Z,99632.60
2018-04-13T15:20:24.168Z,99643.92
2018-04-13T15:22:51.555Z,99640.70
2018-04-13T15:25:18.950Z,99650.67
2018-04-13T15:27:46.326Z,99647.34
2018-04-13T15:30:13.991Z,99657.42
2018-04-13T15:32:41.484Z,99662.54
2018-04-13T15:35:08.865Z,99665.40
2018-04-13T15:37:36.260Z,99665.75
2018-04-13T15:40:03.691Z,99666.70
2018-04-13T15:42:31.116Z,99676.16
2018-04-13T15:44:58.933Z,99681.03
2018-04-13T15:47:26.379Z,99678.47
2018-04-13T15:49:53.785Z,99680.52
2018-04-13T15:52:21.159Z,99680.52
2018-04-13T15:54:48.580Z,99676.58
2018-04-13T15:57:16.011Z,99684.12
2018-04-13T15:59:43.415Z,99690.84
2018-04-13T16:02:10.826Z,99688.92
2018-04-13T16:04:38.574Z,99685.98
2018-04-13T16:07:05.983Z,99693.41
2018-04-13T16:09:33.356Z,99701.18
2018-04-13T16:12:00.739Z,99697.98
2018-04-13T16:14:28.123Z,99695.28
2018-04-13T16:16:55.515Z,99694.22
2018-04-13T16:19:22.914Z,99695.03
2018-04-13T16:21:50.307Z,99706.98
2018-04-13T16:24:17.690Z,99702.83
2018-04-13T16:26:45.089Z,99700.68
2018-04-13T16:29:12.463Z,99701.87
2018-04-13T16:31:39.851Z,99706.87
2018-04-13T16:34:07.239Z,99703.33
2018-04-13T16:36:34.627Z,99713.41
2018-04-13T16:39:02.039Z,99712.75
2018-04-13T16:41:29.405Z,99711.41
2018-04-13T16:43:56.786Z,99710.31
2018-04-13T16:46:24.175Z,99717.02
2018-04-13T16:48:51.560Z,99709.06
2018-04-13T16:51:18.949Z,99714.17
2018-04-13T16:53:46.327Z,99703.95
2018-04-13T16:56:13.747Z,99704.92
2018-04-13T16:58:41.128Z,99710.30
2018-04-13T17:01:08.510Z,99713.90
2018-04-13T17:03:35.904Z,99716.84
2018-04-13T17:06:03.283Z,99714.55
2018-04-13T17:08:30.666Z,99716.03
2018-04-13T17:10:58.065Z,99712.36
2018-04-13T17:13:25.471Z,99712.88
2018-04-13T17:15:52.855Z,99722.33
2018-04-13T17:18:20.244Z,99719.16
2018-04-13T17:20:47.627Z,99729.91
2018-04-13T17:23:15.015Z,99727.94
2018-04-13T17:25:42.402Z,99735.34
2018-04-13T17:28:09.783Z,99737.33
2018-04-13T17:30:37.178Z,99737.44
2018-04-13T17:33:04.562Z,99736.20
2018-04-13T17:35:31.943Z,99746.83
2018-04-13T17:37:59.347Z,99751.24
2018-04-13T17:40:26.837Z,99750.28
2018-04-13T17:42:54.187Z,99750.80
2018-04-13T17:45:21.574Z,99754.67
2018-04-13T17:47:48.974Z,99756.27
2018-04-13T17:50:16.355Z,99764.81
2018-04-13T17:52:43.734Z,99765.34
2018-04-13T17:55:12.007Z,99768.95
2018-04-13T17:57:39.382Z,99766.76
2018-04-13T18:00:06.762Z,99773.14
2018-04-13T18:02:34.155Z,99783.41
2018-04-13T18:05:01.547Z,99782.69
2018-04-13T18:07:29.032Z,99794.09
2018-04-13T18:09:56.493Z,99792.53
2018-04-13T18:12:23.959Z,99797.53
2018-04-13T18:14:51.338Z,99798.32
2018-04-13T18:17:18.743Z,99799.08
2018-04-13T18:19:46.126Z,99806.40
2018-04-13T18:22:13.923Z,99810.23
2018-04-13T18:24:41.306Z,99814.05
2018-04-13T18:27:08.696Z,99813.17
2018-04-13T18:29:36.084Z,99818.52
2018-04-13T18:32:03.463Z,99819.57
2018-04-13T18:34:30.859Z,99826.01
2018-04-13T18:36:58.258Z,99825.93
2018-04-13T18:39:25.669Z,99830.28
2018-04-13T18:41:53.050Z,99838.43
2018-04-13T18:44:20.436Z,99846.06
2018-04-13T18:46:47.823Z,99854.13
2018-04-13T18:49:15.222Z,99848.46
2018-04-13T18:51:42.607Z,99854.29
2018-04-13T18:54:10.002Z,99852.03
2018-04-13T18:56:37.383Z,99858.55
2018-04-13T18:59:04.775Z,99869.37
2018-04-13T19:01:32.220Z,99865.44
2018-04-13T19:03:59.615Z,99866.95
2018-04-13T19:06:27.058Z,99867.70
2018-04-13T19:08:54.446Z,99874.63
2018-04-13T19:11:21.834Z,99875.98
2018-04-13T19:13:49.227Z,99878.81
2018-04-13T19:16:16.616Z,99879.25
2018-04-13T19:18:44.015Z,99883.87
2018-04-13T19:21:11.402Z,99886.73
2018-04-13T19:23:38.786Z,99890.11
2018-04-13T19:26:06.246Z,99894.20
2018-04-13T19:28:33.562Z,99895.27
2018-04-13T19:31:00.955Z,99901.55
2018-04-13T19:33:28.360Z,99898.59
2018-04-13T19:35:55.734Z,99899.17
2018-04-13T19:38:23.115Z,99902.93
2018-04-13T19:40:50.495Z,99898.95
2018-04-13T19:43:17.928Z,99896.92
2018-04-13T19:45:45.299Z,99905.25
2018-04-13T19:48:12.688Z,99898.27
2018-04-13T19:50:40.081Z,99900.95
2018-04-13T19:53:07.462Z,99904.17
2018-04-13T19:55:34.855Z,99905.66
2018-04-13T19:58:02.281Z,99907.92
2018-04-13T20:00:29.961Z,99908.15
2018-04-13T20:02:57.344Z,99917.13
2018-04-13T20:05:24.727Z,99918.47
2018-04-13T20:07:52.119Z,99914.86
2018-04-13T20:10:19.503Z,99920.92
2018-04-13T20:12:46.897Z,99919.61
2018-04-13T20:15:24.987Z,99920.67
2018-04-13T20:17:52.378Z,99928.28
2018-04-13T20:20:19.762Z,99925.95
2018-04-13T20:22:47.139Z,99928.11
2018-04-13T20:25:14.535Z,99927.45
2018-04-13T20:27:41.919Z,99926.03
2018-04-13T20:30:09.325Z,99932.61
2018-04-13T20:32:36.702Z,99938.08
2018-04-13T20:35:04.090Z,99940.92
2018-04-13T20:37:31.478Z,99944.95
2018-04-13T20:39:58.866Z,99943.69
2018-04-13T20:42:26.567Z,99944.54
2018-04-13T20:44:53.951Z,99940.09
2018-04-13T20:47:21.335Z,99949.27
2018-04-13T20:49:48.719Z,99949.56
2018-04-13T20:52:16.099Z,99949.84
2018-04-13T20:54:43.521Z,99951.12
2018-04-13T20:57:10.890Z,99951.19
2018-04-13T20:59:38.271Z,99950.70
2018-04-13T21:02:05.662Z,99951.22
2018-04-13T21:04:33.042Z,99953.54
2018-04-13T21:07:00.431Z,99954.11
2018-04-13T21:09:27.815Z,99961.94
2018-04-13T21:11:55.194Z,99951.91
2018-04-13T21:14:22.578Z,99952.69
2018-04-13T21:16:49.963Z,99961.66
2018-04-13T21:19:17.355Z,99967.72
2018-04-13T21:21:44.735Z,99966.89
2018-04-13T21:24:12.114Z,99971.69
2018-04-13T21:26:39.509Z,99971.48
2018-04-13T21:29:06.891Z,99970.58
2018-04-13T21:31:34.692Z,99962.73
2018-04-13T21:34:02.066Z,99970.06
2018-04-13T21:36:29.455Z,99976.98
2018-04-13T21:38:56.844Z,99974.59
2018-04-13T21:41:24.234Z,99973.78
2018-04-13T21:43:51.622Z,99981.98
2018-04-13T21:46:19.028Z,99977.39
2018-04-13T21:48:46.409Z,99975.85
2018-04-13T21:51:13.795Z,99975.50
2018-04-13T21:53:41.175Z,99978.25
2018-04-13T21:56:08.567Z,99980.29
2018-04-13T21:58:35.955Z,99982.27
2018-04-13T22:01:03.359Z,99982.55
2018-04-13T22:03:30.815Z,99985.85
2018-04-13T22:05:58.206Z,99988.13
2018-04-13T22:08:25.591Z,99995.52
2018-04-13T22:10:52.977Z,99995.90
2018-04-13T22:13:30.907Z,99999.82
2018-04-13T22:15:58.283Z,100001.93
2018-04-13T22:18:25.662Z,99999.26
2018-04-13T22:23:25.879Z,99987.49
2018-04-13T22:25:53.270Z,99986.54
2018-04-13T22:28:20.658Z,99988.65
2018-04-13T22:30:48.040Z,99983.23
2018-04-13T22:33:15.432Z,99987.86
2018-04-13T22:35:42.811Z,99990.64
2018-04-13T22:38:10.210Z,99993.80
2018-04-13T22:40:37.595Z,99998.45
2018-04-13T22:43:04.978Z,100003.87
2018-04-13T22:45:32.478Z,100009.41
2018-04-13T22:47:59.866Z,100009.06
2018-04-13T22:50:27.263Z,100020.89
2018-04-13T22:52:54.650Z,100020.19
2018-04-13T22:55:22.039Z,100024.24
2018-04-13T22:57:49.461Z,100026.77
2018-04-13T23:00:16.830Z,100021.50
2018-04-13T23:02:44.241Z,100020.58
2018-04-13T23:05:11.622Z,100017.03
2018-04-13T23:07:39.011Z,100023.00
2018-04-13T23:10:06.504Z,100027.42
2018-04-13T23:12:33.891Z,100025.31
2018-04-13T23:15:01.300Z,100027.92
2018-04-13T23:17:28.690Z,100027.54
2018-04-13T23:19:56.083Z,100030.92
2018-04-13T23:22:35.122Z,100022.75
2018-04-13T23:25:02.514Z,100022.16
2018-04-13T23:27:29.907Z,100026.84
2018-04-13T23:29:57.297Z,100025.49
2018-04-13T23:32:24.683Z,100030.67
2018-04-13T23:34:52.070Z,100037.13
2018-04-13T23:37:19.462Z,100040.72
2018-04-13T23:39:46.862Z,100045.31
2018-04-13T23:42:14.262Z,100056.19
2018-04-13T23:44:41.639Z,100062.48
2018-04-13T23:47:09.033Z,100061.62
2018-04-13T23:49:36.424Z,100061.57
2018-04-13T23:52:03.818Z,100063.56
2018-04-13T23:54:31.206Z,100065.34
2018-04-13T23:56:58.595Z,100067.89
2018-04-13T23:59:25.989Z,100060.28
